Time;durP1;ratioP1;P1;durP2;ratioP2;P2;SDS_P1;SDS_P2;PMS_P1;PMS_P2;Temp;Humidity;BMP_temperature;BMP_pressure;BME280_temperature;BME280_humidity;BME280_pressure;Samples;Min_cycle;Max_cycle;Signal;HPM_P1;HPM_P2
2022/08/17 00:00:35;;;;;;;9.50;6.78;;;;;;;;;;4947868;28;20373;-64
2022/08/17 00:03:09;;;;;;;12.20;6.90;;;;;;;;;;4948014;28;20455;-63
2022/08/17 00:05:43;;;;;;;11.38;7.00;;;;;;;;;;4948298;28;20183;-64
2022/08/17 00:08:09;;;;;;;13.45;6.88;;;;;;;;;;4948047;28;20453;-62
2022/08/17 00:10:35;;;;;;;16.55;6.78;;;;;;;;;;4947907;28;20034;-64
2022/08/17 00:13:13;;;;;;;10.15;6.97;;;;;;;;;;4946465;28;20437;-64
2022/08/17 00:15:39;;;;;;;11.02;7.60;;;;;;;;;;4947792;28;20445;-63
2022/08/17 00:18:04;;;;;;;14.98;6.80;;;;;;;;;;4948965;28;20499;-63
2022/08/17 00:20:30;;;;;;;10.68;6.80;;;;;;;;;;4947897;28;20528;-64
2022/08/17 00:23:13;;;;;;;10.23;7.28;;;;;;;;;;4948650;28;20034;-63
2022/08/17 00:25:44;;;;;;;8.98;7.30;;;;;;;;;;4947830;28;20567;-63
2022/08/17 00:28:11;;;;;;;11.45;6.22;;;;;;;;;;4947599;28;20346;-63
2022/08/17 00:30:36;;;;;;;12.32;6.68;;;;;;;;;;4948211;28;20369;-63
2022/08/17 00:33:11;;;;;;;10.68;7.10;;;;;;;;;;4949475;28;20050;-63
2022/08/17 00:35:37;;;;;;;11.07;6.63;;;;;;;;;;4947367;28;20030;-63
2022/08/17 00:38:05;;;;;;;11.07;6.40;;;;;;;;;;4947634;28;20512;-63
2022/08/17 00:40:30;;;;;;;10.00;6.65;;;;;;;;;;4947489;28;20354;-63
2022/08/17 00:42:56;;;;;;;12.43;7.28;;;;;;;;;;4947363;28;20408;-63
2022/08/17 00:45:22;;;;;;;9.63;6.88;;;;;;;;;;4948015;28;20349;-63
2022/08/17 00:47:48;;;;;;;9.32;6.82;;;;;;;;;;4947316;28;20415;-63
2022/08/17 00:50:17;;;;;;;11.02;7.18;;;;;;;;;;4947589;28;20456;-63
2022/08/17 00:52:52;;;;;;;9.45;6.13;;;;;;;;;;4947193;28;20030;-63
2022/08/17 00:55:17;;;;;;;10.73;6.45;;;;;;;;;;4946310;28;20113;-63
2022/08/17 00:57:48;;;;;;;11.82;7.18;;;;;;;;;;4946990;28;20559;-63
2022/08/17 01:00:25;;;;;;;10.18;6.45;;;;;;;;;;4947086;28;20376;-64
2022/08/17 01:02:53;;;;;;;9.77;6.10;;;;;;;;;;4951620;28;20400;-64
2022/08/17 01:05:23;;;;;;;9.90;6.20;;;;;;;;;;4968250;28;20406;-63
2022/08/17 01:07:49;;;;;;;9.80;6.45;;;;;;;;;;4967679;28;20527;-64
2022/08/17 01:10:17;;;;;;;9.60;6.72;;;;;;;;;;4967888;28;20445;-63
2022/08/17 01:12:42;;;;;;;11.15;6.30;;;;;;;;;;4967042;28;20375;-63
2022/08/17 01:15:08;;;;;;;11.10;6.95;;;;;;;;;;4968592;28;20029;-63
2022/08/17 01:17:33;;;;;;;19.35;6.35;;;;;;;;;;4967404;28;20112;-63
2022/08/17 01:19:59;;;;;;;11.38;6.68;;;;;;;;;;4969774;28;20034;-63
2022/08/17 01:22:24;;;;;;;8.60;6.28;;;;;;;;;;4966928;28;20334;-63
2022/08/17 01:24:58;;;;;;;10.20;6.70;;;;;;;;;;4967385;28;20435;-63
2022/08/17 01:27:25;;;;;;;10.88;6.82;;;;;;;;;;4967011;28;20360;-63
2022/08/17 01:29:57;;;;;;;10.70;6.10;;;;;;;;;;4966679;28;20441;-63
2022/08/17 01:32:25;;;;;;;13.90;6.72;;;;;;;;;;4966369;28;20392;-63
2022/08/17 01:34:52;;;;;;;12.60;6.50;;;;;;;;;;4966590;28;20459;-63
2022/08/17 01:37:19;;;;;;;11.27;7.13;;;;;;;;;;4967141;28;20530;-63
2022/08/17 01:39:55;;;;;;;9.45;6.10;;;;;;;;;;4967681;28;20431;-63
2022/08/17 01:42:34;;;;;;;11.88;6.30;;;;;;;;;;4966312;28;20171;-63
2022/08/17 01:45:05;;;;;;;9.85;6.53;;;;;;;;;;4971829;28;20324;-63
2022/08/17 01:47:30;;;;;;;8.85;6.10;;;;;;;;;;4971704;28;20356;-63
2022/08/17 01:49:56;;;;;;;8.90;6.07;;;;;;;;;;4953575;28;20120;-63
2022/08/17 01:52:22;;;;;;;8.30;5.65;;;;;;;;;;4971326;28;20413;-64
2022/08/17 01:54:49;;;;;;;9.82;5.93;;;;;;;;;;4971416;28;20440;-63
2022/08/17 01:57:15;;;;;;;12.98;5.93;;;;;;;;;;4969905;28;20451;-63
2022/08/17 01:59:40;;;;;;;9.32;7.00;;;;;;;;;;4971455;28;20432;-63
2022/08/17 02:02:06;;;;;;;9.63;6.53;;;;;;;;;;4971331;28;20338;-64
2022/08/17 02:04:32;;;;;;;15.02;7.00;;;;;;;;;;4970820;28;20375;-64
2022/08/17 02:06:58;;;;;;;12.85;6.90;;;;;;;;;;4969537;28;20411;-63
2022/08/17 02:09:25;;;;;;;8.88;6.10;;;;;;;;;;4970945;28;20068;-63
2022/08/17 02:11:51;;;;;;;11.10;5.97;;;;;;;;;;4970575;28;20368;-63
2022/08/17 02:14:16;;;;;;;9.30;5.95;;;;;;;;;;4970843;28;20357;-64
2022/08/17 02:16:42;;;;;;;8.50;6.15;;;;;;;;;;4972309;28;20428;-63
2022/08/17 02:19:14;;;;;;;11.90;7.05;;;;;;;;;;4970549;28;20537;-64
2022/08/17 02:21:41;;;;;;;11.00;5.90;;;;;;;;;;4970605;28;20445;-63
2022/08/17 02:24:10;;;;;;;13.10;6.13;;;;;;;;;;4970850;28;20348;-63
2022/08/17 02:26:35;;;;;;;9.80;6.70;;;;;;;;;;4970678;28;20378;-63
2022/08/17 02:29:02;;;;;;;8.45;5.57;;;;;;;;;;4971172;28;20026;-63
2022/08/17 02:31:29;;;;;;;8.82;6.35;;;;;;;;;;4971730;28;20049;-63
2022/08/17 02:33:55;;;;;;;7.05;5.43;;;;;;;;;;4970919;28;20318;-63
2022/08/17 02:36:20;;;;;;;9.07;5.97;;;;;;;;;;4971355;28;20029;-64
2022/08/17 02:38:46;;;;;;;10.82;6.40;;;;;;;;;;4970342;28;20033;-63
2022/08/17 02:41:12;;;;;;;8.57;5.25;;;;;;;;;;4972505;28;20440;-63
2022/08/17 02:43:37;;;;;;;8.60;5.43;;;;;;;;;;4970655;28;20056;-63
2022/08/17 02:46:02;;;;;;;8.43;6.10;;;;;;;;;;4971253;28;20278;-63
2022/08/17 02:48:28;;;;;;;10.77;5.93;;;;;;;;;;4971323;28;20447;-63
2022/08/17 02:50:53;;;;;;;10.57;5.50;;;;;;;;;;4971114;28;20422;-64
2022/08/17 02:53:18;;;;;;;10.60;5.32;;;;;;;;;;4970785;28;20414;-63
2022/08/17 02:55:44;;;;;;;7.60;5.45;;;;;;;;;;4969868;28;20505;-63
2022/08/17 02:58:10;;;;;;;7.05;5.47;;;;;;;;;;4969766;28;20397;-63
2022/08/17 03:00:40;;;;;;;9.50;5.90;;;;;;;;;;4969934;28;20459;-64
2022/08/17 03:03:05;;;;;;;8.40;6.15;;;;;;;;;;4970540;28;20348;-64
2022/08/17 03:05:34;;;;;;;7.90;5.50;;;;;;;;;;4971289;28;20348;-64
2022/08/17 03:08:00;;;;;;;8.68;5.93;;;;;;;;;;4969940;28;20052;-63
2022/08/17 03:10:25;;;;;;;13.88;6.43;;;;;;;;;;4970044;28;20436;-63
2022/08/17 03:12:51;;;;;;;6.65;5.03;;;;;;;;;;4969208;28;20103;-63
2022/08/17 03:15:20;;;;;;;7.82;5.40;;;;;;;;;;4969704;28;20419;-64
2022/08/17 03:17:46;;;;;;;10.43;5.35;;;;;;;;;;4968680;28;20362;-63
2022/08/17 03:20:13;;;;;;;9.95;5.22;;;;;;;;;;4968633;28;20352;-64
2022/08/17 03:22:45;;;;;;;7.28;5.53;;;;;;;;;;4968233;28;20052;-63
2022/08/17 03:25:17;;;;;;;7.88;5.40;;;;;;;;;;4969428;28;20340;-63
2022/08/17 03:27:43;;;;;;;8.05;5.88;;;;;;;;;;4968285;28;20053;-64
2022/08/17 03:30:11;;;;;;;8.23;6.45;;;;;;;;;;4968150;28;20456;-63
2022/08/17 03:32:39;;;;;;;10.82;6.03;;;;;;;;;;4967777;28;20049;-63
2022/08/17 03:35:05;;;;;;;7.43;5.20;;;;;;;;;;4968170;28;20444;-64
2022/08/17 03:37:30;;;;;;;9.68;4.93;;;;;;;;;;4968151;28;20337;-64
2022/08/17 03:39:55;;;;;;;6.55;5.40;;;;;;;;;;4968502;28;20437;-63
2022/08/17 03:42:24;;;;;;;7.32;5.22;;;;;;;;;;4968181;28;20325;-65
2022/08/17 03:44:54;;;;;;;7.70;5.65;;;;;;;;;;4968014;28;20480;-64
2022/08/17 03:58:19;;;;;;;13.10;5.63;;;;;;;;;;4970254;28;20517;-63
2022/08/17 04:00:45;;;;;;;9.13;5.45;;;;;;;;;;4967779;28;20499;-63
2022/08/17 04:03:11;;;;;;;7.57;5.63;;;;;;;;;;4969222;28;20412;-63
2022/08/17 04:05:37;;;;;;;13.23;6.72;;;;;;;;;;4968067;28;20452;-63
2022/08/17 04:08:03;;;;;;;9.70;6.47;;;;;;;;;;4967552;28;20514;-63
2022/08/17 04:10:29;;;;;;;13.57;6.20;;;;;;;;;;4967641;28;20386;-63
2022/08/17 04:12:55;;;;;;;10.27;6.13;;;;;;;;;;4967189;28;20414;-64
2022/08/17 04:15:21;;;;;;;14.98;6.55;;;;;;;;;;4967813;28;20316;-64
2022/08/17 04:17:47;;;;;;;7.00;5.65;;;;;;;;;;4967396;28;20494;-64
2022/08/17 04:20:14;;;;;;;8.20;6.10;;;;;;;;;;4966261;28;20448;-63
2022/08/17 04:23:04;;;;;;;16.05;7.32;;;;;;;;;;4969087;28;20072;-64
2022/08/17 04:25:32;;;;;;;10.85;6.22;;;;;;;;;;4967194;28;20318;-64
2022/08/17 04:27:58;;;;;;;11.40;6.95;;;;;;;;;;4968043;28;20049;-63
2022/08/17 04:30:24;;;;;;;9.60;6.38;;;;;;;;;;4967147;28;20051;-63
2022/08/17 04:32:59;;;;;;;9.35;6.32;;;;;;;;;;4966666;28;20417;-65
2022/08/17 04:35:30;;;;;;;8.38;5.93;;;;;;;;;;4969081;28;20432;-63
2022/08/17 04:37:56;;;;;;;9.25;5.78;;;;;;;;;;4966835;28;20412;-63
2022/08/17 04:43:10;;;;;;;9.05;6.32;;;;;;;;;;4968273;28;20538;-63
2022/08/17 04:45:47;;;;;;;10.20;6.88;;;;;;;;;;4967004;28;20037;-64
2022/08/17 04:48:13;;;;;;;8.82;6.28;;;;;;;;;;4966901;28;20392;-63
2022/08/17 04:50:44;;;;;;;8.93;5.97;;;;;;;;;;4966832;28;20364;-66
2022/08/17 04:53:09;;;;;;;10.45;5.80;;;;;;;;;;4966794;28;20372;-63
2022/08/17 04:55:35;;;;;;;10.05;6.03;;;;;;;;;;4966892;28;20400;-63
2022/08/17 04:58:00;;;;;;;11.57;6.10;;;;;;;;;;4966757;28;20428;-63
2022/08/17 05:00:26;;;;;;;11.57;5.88;;;;;;;;;;4965145;28;20423;-63
2022/08/17 05:02:53;;;;;;;10.10;5.93;;;;;;;;;;4966761;28;20041;-63
2022/08/17 05:05:20;;;;;;;10.30;6.95;;;;;;;;;;4966690;28;20076;-64
2022/08/17 05:07:46;;;;;;;12.32;6.60;;;;;;;;;;4966686;28;20395;-64
2022/08/17 05:10:11;;;;;;;8.68;6.55;;;;;;;;;;4968026;28;20360;-63
2022/08/17 05:12:37;;;;;;;10.73;7.13;;;;;;;;;;4967071;28;20527;-63
2022/08/17 05:15:02;;;;;;;11.38;7.07;;;;;;;;;;4967346;28;20353;-63
2022/08/17 05:17:28;;;;;;;9.68;7.22;;;;;;;;;;4966715;28;20447;-63
2022/08/17 05:19:53;;;;;;;11.25;7.30;;;;;;;;;;4970160;28;20417;-63
2022/08/17 05:22:19;;;;;;;13.02;7.25;;;;;;;;;;4970453;28;20460;-63
2022/08/17 05:24:44;;;;;;;13.30;7.28;;;;;;;;;;4971629;28;20025;-63
2022/08/17 05:27:10;;;;;;;15.40;8.20;;;;;;;;;;4971217;28;20471;-63
2022/08/17 05:29:35;;;;;;;14.73;8.18;;;;;;;;;;4971736;28;20344;-64
2022/08/17 05:32:09;;;;;;;14.02;8.43;;;;;;;;;;4970493;28;20395;-64
2022/08/17 05:34:35;;;;;;;13.43;8.13;;;;;;;;;;4632167;28;10001279;-63
2022/08/17 05:37:01;;;;;;;16.20;9.50;;;;;;;;;;4969550;28;20468;-63
2022/08/17 05:39:26;;;;;;;17.77;10.18;;;;;;;;;;4970343;28;20499;-62
2022/08/17 05:41:51;;;;;;;12.80;7.75;;;;;;;;;;4970483;28;20360;-64
2022/08/17 05:44:17;;;;;;;12.85;8.70;;;;;;;;;;4970538;28;20455;-64
2022/08/17 05:46:47;;;;;;;13.30;8.82;;;;;;;;;;4970491;28;20321;-63
2022/08/17 05:49:13;;;;;;;19.13;9.27;;;;;;;;;;4969911;28;20479;-64
2022/08/17 05:51:47;;;;;;;12.90;8.75;;;;;;;;;;4968900;28;20375;-63
2022/08/17 05:54:25;;;;;;;18.40;10.05;;;;;;;;;;4968873;28;20486;-63
2022/08/17 05:57:07;;;;;;;15.55;9.25;;;;;;;;;;4972326;28;20052;-64
2022/08/17 06:00:00;;;;;;;16.42;9.73;;;;;;;;;;4968915;28;20467;-63
2022/08/17 06:02:49;;;;;;;16.38;10.13;;;;;;;;;;4971717;28;20443;-63
2022/08/17 06:05:40;;;;;;;16.38;8.27;;;;;;;;;;4984955;28;20498;-63
2022/08/17 06:08:13;;;;;;;17.77;10.32;;;;;;;;;;4968808;28;20124;-63
2022/08/17 06:10:45;;;;;;;21.60;10.73;;;;;;;;;;4970243;28;20400;-63
2022/08/17 06:13:41;;;;;;;17.80;10.73;;;;;;;;;;4970354;28;20033;-63
2022/08/17 06:16:15;;;;;;;22.02;10.88;;;;;;;;;;4970561;28;20531;-63
2022/08/17 06:18:54;;;;;;;19.13;11.07;;;;;;;;;;4968550;28;20470;-64
2022/08/17 06:21:20;;;;;;;17.85;11.77;;;;;;;;;;4970514;28;20460;-63
2022/08/17 06:24:17;;;;;;;19.65;12.27;;;;;;;;;;4985356;28;20407;-66
2022/08/17 06:26:44;;;;;;;20.60;11.70;;;;;;;;;;4984724;28;20447;-63
2022/08/17 06:29:44;;;;;;;26.38;11.73;;;;;;;;;;4969933;28;20360;-63
2022/08/17 06:32:11;;;;;;;21.73;10.77;;;;;;;;;;4971634;28;20548;-64
2022/08/17 06:34:37;;;;;;;16.85;10.73;;;;;;;;;;4970192;28;20387;-62
2022/08/17 06:37:18;;;;;;;14.27;9.60;;;;;;;;;;4969943;28;20458;-63
2022/08/17 06:39:53;;;;;;;20.25;11.30;;;;;;;;;;4968288;28;20511;-63
2022/08/17 06:42:39;;;;;;;22.45;11.10;;;;;;;;;;4970289;28;20428;-62
2022/08/17 06:45:08;;;;;;;17.33;10.75;;;;;;;;;;4969824;28;20079;-62
2022/08/17 06:48:09;;;;;;;20.50;12.25;;;;;;;;;;4970459;28;20433;-62
2022/08/17 06:50:36;;;;;;;18.23;10.60;;;;;;;;;;4967718;28;20472;-62
2022/08/17 06:53:08;;;;;;;15.80;11.18;;;;;;;;;;4969654;28;20456;-64
2022/08/17 06:55:51;;;;;;;21.63;11.63;;;;;;;;;;4969840;28;20464;-63
2022/08/17 06:58:20;;;;;;;20.77;11.55;;;;;;;;;;4969117;28;20518;-63
2022/08/17 07:00:46;;;;;;;20.90;11.48;;;;;;;;;;4968794;28;20048;-63
2022/08/17 07:03:19;;;;;;;17.67;10.15;;;;;;;;;;4968960;28;20514;-64
2022/08/17 07:05:58;;;;;;;17.83;11.73;;;;;;;;;;4969086;28;20532;-64
2022/08/17 07:08:50;;;;;;;17.95;10.88;;;;;;;;;;4984365;28;20399;-63
2022/08/17 07:11:20;;;;;;;18.77;11.63;;;;;;;;;;4969067;28;20053;-63
2022/08/17 07:13:48;;;;;;;21.55;11.25;;;;;;;;;;4968938;28;20372;-63
2022/08/17 07:16:40;;;;;;;21.38;11.27;;;;;;;;;;4969650;28;20026;-62
2022/08/17 07:19:06;;;;;;;16.75;10.93;;;;;;;;;;4969116;28;20082;-63
2022/08/17 07:22:13;;;;;;;22.77;9.13;;;;;;;;;;4968930;28;20540;-63
2022/08/17 07:24:52;;;;;;;12.55;8.05;;;;;;;;;;4967581;28;20108;-63
2022/08/17 07:27:23;;;;;;;9.95;6.90;;;;;;;;;;4969120;28;20129;-63
2022/08/17 07:29:56;;;;;;;15.65;9.43;;;;;;;;;;4969193;28;20483;-62
2022/08/17 07:32:28;;;;;;;10.80;7.72;;;;;;;;;;4969065;28;20073;-62
2022/08/17 07:35:11;;;;;;;11.70;7.82;;;;;;;;;;4967085;28;20502;-63
2022/08/17 07:37:43;;;;;;;11.00;7.47;;;;;;;;;;4968413;28;20037;-63
2022/08/17 07:40:15;;;;;;;13.20;7.75;;;;;;;;;;4969759;28;20033;-63
2022/08/17 07:42:40;;;;;;;14.27;7.93;;;;;;;;;;4983251;28;20742;-63
2022/08/17 07:48:17;;;;;;;13.10;7.35;;;;;;;;;;4970738;28;20492;-63
2022/08/17 07:50:52;;;;;;;15.60;7.00;;;;;;;;;;4945403;28;20364;-62
2022/08/17 07:53:24;;;;;;;12.00;7.95;;;;;;;;;;4968650;28;20080;-62
2022/08/17 07:55:50;;;;;;;11.88;7.72;;;;;;;;;;4968714;28;20423;-63
2022/08/17 07:58:19;;;;;;;12.05;7.22;;;;;;;;;;4968288;28;20336;-63
2022/08/17 08:00:45;;;;;;;14.05;8.20;;;;;;;;;;4968875;28;20524;-63
2022/08/17 08:03:24;;;;;;;10.65;7.10;;;;;;;;;;4968965;28;20446;-63
2022/08/17 08:05:53;;;;;;;11.32;7.25;;;;;;;;;;4968555;28;20033;-64
2022/08/17 08:08:32;;;;;;;10.90;7.57;;;;;;;;;;4968584;28;20480;-63
2022/08/17 08:11:07;;;;;;;9.13;6.78;;;;;;;;;;4968350;28;20483;-62
2022/08/17 08:13:34;;;;;;;9.10;6.88;;;;;;;;;;4968177;28;20056;-62
2022/08/17 08:16:13;;;;;;;12.27;7.63;;;;;;;;;;4969789;28;20426;-63
2022/08/17 08:18:42;;;;;;;14.95;7.85;;;;;;;;;;4966519;28;20029;-62
2022/08/17 08:21:18;;;;;;;10.40;7.07;;;;;;;;;;4969974;28;20029;-63
2022/08/17 08:24:21;;;;;;;9.80;6.90;;;;;;;;;;4967856;28;20337;-63
2022/08/17 08:26:49;;;;;;;9.32;6.68;;;;;;;;;;4968490;28;20514;-63
2022/08/17 08:30:08;;;;;;;11.00;6.68;;;;;;;;;;4969802;28;20052;-63
2022/08/17 08:32:58;;;;;;;10.02;6.93;;;;;;;;;;4964315;28;20172;-63
2022/08/17 08:35:25;;;;;;;11.93;7.32;;;;;;;;;;4965147;28;20440;-63
2022/08/17 08:37:59;;;;;;;8.43;6.82;;;;;;;;;;4966370;28;20476;-63
2022/08/17 08:41:00;;;;;;;11.52;7.07;;;;;;;;;;4968007;28;20491;-62
2022/08/17 08:43:41;;;;;;;12.77;6.47;;;;;;;;;;4964920;28;20060;-64
2022/08/17 08:46:24;;;;;;;10.43;6.80;;;;;;;;;;4967944;28;20321;-63
2022/08/17 08:49:06;;;;;;;8.80;6.05;;;;;;;;;;4967277;28;20512;-63
2022/08/17 08:51:45;;;;;;;10.13;7.30;;;;;;;;;;4965890;28;20405;-63
2022/08/17 08:54:13;;;;;;;;;;;;;;;;;;4967487;28;20556;-63
2022/08/17 08:57:07;;;;;;;10.48;6.18;;;;;;;;;;4967123;28;20323;-62
2022/08/17 08:59:51;;;;;;;10.93;7.30;;;;;;;;;;4966539;28;20452;-63
2022/08/17 09:02:51;;;;;;;11.35;6.32;;;;;;;;;;4967194;28;20360;-63
2022/08/17 09:05:35;;;;;;;9.20;6.35;;;;;;;;;;4967822;28;20319;-63
2022/08/17 09:08:28;;;;;;;9.43;6.38;;;;;;;;;;4966901;28;20352;-63
2022/08/17 09:11:03;;;;;;;13.32;6.28;;;;;;;;;;4966858;28;20444;-62
2022/08/17 09:13:50;;;;;;;11.80;6.30;;;;;;;;;;4965234;28;20025;-63
2022/08/17 09:16:22;;;;;;;7.30;5.57;;;;;;;;;;4968600;28;20440;-64
2022/08/17 09:18:53;;;;;;;10.07;6.03;;;;;;;;;;4965757;28;20543;-62
2022/08/17 09:21:37;;;;;;;9.50;7.15;;;;;;;;;;4967121;28;20360;-62
2022/08/17 09:24:53;;;;;;;11.15;6.57;;;;;;;;;;4965669;28;20344;-62
2022/08/17 09:27:27;;;;;;;8.27;6.07;;;;;;;;;;4966233;28;20042;-62
2022/08/17 09:29:59;;;;;;;7.75;6.05;;;;;;;;;;4967244;28;20491;-63
2022/08/17 09:32:36;;;;;;;12.18;6.35;;;;;;;;;;4966607;28;20131;-63
2022/08/17 09:35:07;;;;;;;11.60;6.00;;;;;;;;;;4966780;28;20340;-63
2022/08/17 09:37:55;;;;;;;11.50;6.70;;;;;;;;;;4969016;28;20459;-63
2022/08/17 09:40:45;;;;;;;10.65;7.53;;;;;;;;;;4968294;28;20436;-63
2022/08/17 09:43:30;;;;;;;10.18;6.10;;;;;;;;;;4965471;28;20029;-64
2022/08/17 09:46:10;;;;;;;8.48;5.93;;;;;;;;;;4966032;28;20459;-62
2022/08/17 09:48:54;;;;;;;11.60;6.57;;;;;;;;;;4965307;28;20453;-63
2022/08/17 09:51:31;;;;;;;9.73;6.72;;;;;;;;;;4965287;28;20394;-63
2022/08/17 09:53:57;;;;;;;10.37;6.60;;;;;;;;;;4966583;28;20029;-62
2022/08/17 09:56:51;;;;;;;9.10;5.75;;;;;;;;;;4966551;28;20372;-63
2022/08/17 09:59:23;;;;;;;8.20;5.53;;;;;;;;;;4964828;28;20347;-63
2022/08/17 10:02:35;;;;;;;9.15;6.00;;;;;;;;;;4965065;28;20029;-62
2022/08/17 10:05:05;;;;;;;10.05;6.68;;;;;;;;;;4949624;28;20427;-63
2022/08/17 10:07:59;;;;;;;9.23;6.35;;;;;;;;;;4970388;28;20433;-63
2022/08/17 10:10:28;;;;;;;10.40;6.53;;;;;;;;;;4970137;28;20030;-63
2022/08/17 10:13:12;;;;;;;11.80;6.20;;;;;;;;;;4971012;28;20536;-63
2022/08/17 10:15:48;;;;;;;8.20;5.95;;;;;;;;;;4969993;28;20356;-63
2022/08/17 10:18:38;;;;;;;9.23;6.60;;;;;;;;;;4968334;28;20079;-62
2022/08/17 10:27:15;;;;;;;12.63;5.95;;;;;;;;;;4968498;28;20364;-63
2022/08/17 10:29:53;;;;;;;10.05;5.93;;;;;;;;;;4968585;28;20576;-64
2022/08/17 10:32:32;;;;;;;8.63;6.23;;;;;;;;;;4970035;28;20446;-63
2022/08/17 10:35:29;;;;;;;10.50;5.78;;;;;;;;;;4969835;28;20711;-63
2022/08/17 10:37:58;;;;;;;8.95;6.72;;;;;;;;;;4969393;28;20449;-62
2022/08/17 10:40:36;;;;;;;11.13;6.13;;;;;;;;;;4967776;28;20439;-63
2022/08/17 10:43:17;;;;;;;9.82;5.95;;;;;;;;;;4969509;28;20037;-64
2022/08/17 10:46:15;;;;;;;9.82;6.22;;;;;;;;;;4969255;28;20338;-62
2022/08/17 10:48:41;;;;;;;9.98;5.60;;;;;;;;;;4967827;28;20337;-62
2022/08/17 10:51:25;;;;;;;10.77;6.35;;;;;;;;;;4967753;28;20418;-62
2022/08/17 10:53:51;;;;;;;10.68;5.88;;;;;;;;;;4969385;28;20408;-63
2022/08/17 10:56:20;;;;;;;9.45;6.10;;;;;;;;;;4969225;28;20022;-63
2022/08/17 10:58:59;;;;;;;8.38;5.88;;;;;;;;;;4968904;28;20344;-63
2022/08/17 11:01:42;;;;;;;8.15;5.85;;;;;;;;;;4969875;28;20479;-63
2022/08/17 11:04:16;;;;;;;8.45;5.75;;;;;;;;;;4969001;28;20464;-63
2022/08/17 11:07:12;;;;;;;9.52;6.65;;;;;;;;;;4970609;28;20424;-63
2022/08/17 11:09:43;;;;;;;10.60;6.00;;;;;;;;;;4970583;28;20488;-62
2022/08/17 11:12:36;;;;;;;10.77;6.25;;;;;;;;;;4967241;28;20459;-62
2022/08/17 11:15:31;;;;;;;9.40;6.38;;;;;;;;;;4970058;28;20076;-63
2022/08/17 11:18:05;;;;;;;9.43;6.38;;;;;;;;;;4968562;28;20348;-63
2022/08/17 11:20:55;;;;;;;8.30;5.97;;;;;;;;;;4968874;28;20438;-62
2022/08/17 11:23:58;;;;;;;7.57;5.63;;;;;;;;;;4970490;28;20344;-63
2022/08/17 11:26:32;;;;;;;11.77;5.50;;;;;;;;;;4969975;28;20447;-63
2022/08/17 11:29:23;;;;;;;7.00;5.22;;;;;;;;;;4969021;28;20655;-63
2022/08/17 11:32:12;;;;;;;8.30;5.28;;;;;;;;;;4966807;28;20346;-63
2022/08/17 11:34:38;;;;;;;8.93;4.93;;;;;;;;;;4970525;28;20423;-63
2022/08/17 11:37:28;;;;;;;7.55;4.75;;;;;;;;;;4967251;28;20260;-63
2022/08/17 11:40:14;;;;;;;6.53;4.50;;;;;;;;;;4967361;28;20357;-63
2022/08/17 11:42:51;;;;;;;7.65;4.35;;;;;;;;;;4968537;28;20464;-63
2022/08/17 11:45:29;;;;;;;6.00;4.87;;;;;;;;;;4968509;28;20102;-64
2022/08/17 11:53:50;;;;;;;6.38;4.80;;;;;;;;;;4968087;28;20376;-63
2022/08/17 11:56:40;;;;;;;6.45;4.80;;;;;;;;;;4968333;28;20464;-64
2022/08/17 11:59:34;;;;;;;6.97;4.55;;;;;;;;;;4968580;28;20383;-63
2022/08/17 12:02:01;;;;;;;7.50;4.30;;;;;;;;;;4968218;28;20348;-62
2022/08/17 12:04:29;;;;;;;7.32;4.15;;;;;;;;;;4968578;28;20448;-63
2022/08/17 12:07:12;;;;;;;6.35;4.30;;;;;;;;;;4967951;28;20535;-63
2022/08/17 12:09:40;;;;;;;6.22;4.65;;;;;;;;;;4967296;28;20486;-63
2022/08/17 12:12:12;;;;;;;6.05;4.50;;;;;;;;;;4967883;28;20360;-64
2022/08/17 12:14:39;;;;;;;10.75;4.57;;;;;;;;;;4969648;28;20332;-64
2022/08/17 12:17:12;;;;;;;6.22;4.70;;;;;;;;;;4967930;28;20018;-64
2022/08/17 12:19:41;;;;;;;9.93;4.28;;;;;;;;;;4969397;28;20337;-64
2022/08/17 12:22:35;;;;;;;;;;;;;;;;;;4969684;28;20164;-63
2022/08/17 12:25:35;;;;;;;7.88;4.18;;;;;;;;;;4965341;28;20387;-64
2022/08/17 12:28:00;;;;;;;5.18;3.95;;;;;;;;;;4966923;28;20617;-63
2022/08/17 12:30:26;;;;;;;5.40;3.97;;;;;;;;;;4967731;28;20352;-63
2022/08/17 12:32:52;;;;;;;6.65;4.38;;;;;;;;;;4967575;28;20737;-63
2022/08/17 12:35:38;;;;;;;5.40;4.22;;;;;;;;;;4967646;28;20461;-63
2022/08/17 12:38:07;;;;;;;8.70;4.45;;;;;;;;;;4967350;28;20494;-63
2022/08/17 12:40:33;;;;;;;6.32;4.10;;;;;;;;;;4967404;28;20400;-63
2022/08/17 12:43:05;;;;;;;5.78;4.20;;;;;;;;;;4966663;28;20098;-63
2022/08/17 12:45:38;;;;;;;7.05;4.57;;;;;;;;;;4968228;28;20451;-63
2022/08/17 12:48:06;;;;;;;9.57;4.63;;;;;;;;;;4969705;28;20116;-63
2022/08/17 12:50:39;;;;;;;8.45;5.00;;;;;;;;;;4969157;28;20349;-63
2022/08/17 12:53:13;;;;;;;10.00;5.03;;;;;;;;;;4968514;28;20361;-62
2022/08/17 12:55:39;;;;;;;7.40;5.47;;;;;;;;;;4966525;28;20445;-62
2022/08/17 12:58:05;;;;;;;7.40;5.30;;;;;;;;;;4965540;28;20398;-63
2022/08/17 13:00:40;;;;;;;8.90;5.95;;;;;;;;;;4968913;28;20501;-63
2022/08/17 13:03:18;;;;;;;7.57;5.07;;;;;;;;;;4967661;28;20087;-62
2022/08/17 13:06:08;;;;;;;6.72;4.90;;;;;;;;;;4969188;28;20429;-63
2022/08/17 13:08:41;;;;;;;6.80;4.90;;;;;;;;;;4967071;28;20452;-63
2022/08/17 13:11:17;;;;;;;7.78;5.40;;;;;;;;;;4968914;28;20570;-63
2022/08/17 13:13:53;;;;;;;6.63;5.03;;;;;;;;;;4968789;28;20459;-63
2022/08/17 13:16:24;;;;;;;6.53;5.30;;;;;;;;;;4965657;28;20502;-63
2022/08/17 13:19:04;;;;;;;6.93;5.18;;;;;;;;;;4965572;28;20460;-63
2022/08/17 13:21:29;;;;;;;16.58;5.50;;;;;;;;;;4966543;28;20444;-63
2022/08/17 13:24:12;;;;;;;9.68;5.38;;;;;;;;;;4967029;28;20345;-64
2022/08/17 13:26:42;;;;;;;7.43;5.57;;;;;;;;;;4966772;28;20340;-64
2022/08/17 13:29:24;;;;;;;5.60;4.50;;;;;;;;;;4968184;28;20458;-63
2022/08/17 13:31:52;;;;;;;10.52;5.80;;;;;;;;;;4965062;28;20548;-63
2022/08/17 13:34:42;;;;;;;8.93;6.85;;;;;;;;;;4967266;28;20115;-63
2022/08/17 13:37:27;;;;;;;7.75;6.22;;;;;;;;;;4966847;28;20519;-62
2022/08/17 13:39:56;;;;;;;8.45;6.47;;;;;;;;;;4968844;28;20064;-63
2022/08/17 13:42:38;;;;;;;8.98;6.03;;;;;;;;;;4970821;28;20420;-62
2022/08/17 13:45:28;;;;;;;7.10;6.10;;;;;;;;;;4971192;28;20473;-63
2022/08/17 13:48:15;;;;;;;9.98;7.53;;;;;;;;;;4970426;28;20440;-63
2022/08/17 13:50:58;;;;;;;8.57;6.80;;;;;;;;;;4971958;28;20428;-63
2022/08/17 13:53:34;;;;;;;8.98;7.32;;;;;;;;;;4970307;28;20014;-63
2022/08/17 13:56:08;;;;;;;8.15;6.65;;;;;;;;;;4970417;28;20460;-63
2022/08/17 13:58:36;;;;;;;9.32;6.90;;;;;;;;;;4985450;28;20348;-63
2022/08/17 14:01:28;;;;;;;13.07;6.85;;;;;;;;;;4969010;28;20398;-64
2022/08/17 14:03:54;;;;;;;8.55;6.80;;;;;;;;;;4970460;28;20037;-63
2022/08/17 14:06:20;;;;;;;9.70;7.28;;;;;;;;;;4970150;28;20464;-62
2022/08/17 14:08:46;;;;;;;7.65;6.40;;;;;;;;;;4970407;28;20432;-63
2022/08/17 14:11:11;;;;;;;8.88;7.05;;;;;;;;;;4970246;28;20459;-63
2022/08/17 14:13:37;;;;;;;8.77;7.50;;;;;;;;;;4968461;28;20575;-62
2022/08/17 14:16:02;;;;;;;8.90;7.47;;;;;;;;;;4970272;28;20419;-63
2022/08/17 14:18:28;;;;;;;10.25;7.93;;;;;;;;;;4969901;28;20348;-62
2022/08/17 14:20:55;;;;;;;11.02;8.02;;;;;;;;;;4971943;28;20449;-63
2022/08/17 14:23:20;;;;;;;8.93;7.18;;;;;;;;;;4970074;28;20037;-62
2022/08/17 14:25:46;;;;;;;9.95;7.88;;;;;;;;;;4969895;28;20452;-63
2022/08/17 14:28:12;;;;;;;8.98;7.72;;;;;;;;;;4970552;28;20464;-63
2022/08/17 14:30:39;;;;;;;12.18;7.72;;;;;;;;;;4970292;28;20048;-62
2022/08/17 14:33:04;;;;;;;9.25;7.80;;;;;;;;;;4969617;28;20411;-63
2022/08/17 14:35:30;;;;;;;9.45;7.68;;;;;;;;;;4969975;28;20092;-62
2022/08/17 14:37:56;;;;;;;10.90;8.55;;;;;;;;;;4970874;28;20344;-63
2022/08/17 14:40:23;;;;;;;9.73;7.90;;;;;;;;;;4971540;28;20455;-63
2022/08/17 14:42:49;;;;;;;10.50;8.65;;;;;;;;;;4971490;28;20467;-63
2022/08/17 14:45:15;;;;;;;9.98;7.65;;;;;;;;;;4969814;28;20321;-62
2022/08/17 14:47:41;;;;;;;14.32;8.30;;;;;;;;;;4969392;28;20735;-63
2022/08/17 14:50:10;;;;;;;10.43;8.10;;;;;;;;;;4969343;28;20348;-62
2022/08/17 14:52:39;;;;;;;10.23;8.85;;;;;;;;;;4969227;28;20409;-62
2022/08/17 14:55:05;;;;;;;9.50;7.40;;;;;;;;;;4969432;28;20378;-62
2022/08/17 14:57:31;;;;;;;11.60;8.18;;;;;;;;;;4969385;28;20112;-64
2022/08/17 14:59:56;;;;;;;8.38;7.05;;;;;;;;;;4969721;28;20444;-63
2022/08/17 15:02:27;;;;;;;8.95;7.47;;;;;;;;;;4969354;28;20532;-63
2022/08/17 15:04:55;;;;;;;8.95;7.07;;;;;;;;;;4969381;28;20431;-64
2022/08/17 15:07:21;;;;;;;9.90;7.77;;;;;;;;;;4970723;28;20466;-63
2022/08/17 15:09:47;;;;;;;10.18;8.15;;;;;;;;;;4969148;28;20344;-63
2022/08/17 15:12:17;;;;;;;8.50;6.82;;;;;;;;;;4968928;28;20026;-63
2022/08/17 15:14:42;;;;;;;8.95;7.18;;;;;;;;;;4967532;28;20498;-63
2022/08/17 15:17:08;;;;;;;9.40;7.40;;;;;;;;;;4969838;28;20509;-63
2022/08/17 15:19:33;;;;;;;10.93;7.55;;;;;;;;;;4968880;28;20393;-63
2022/08/17 15:21:58;;;;;;;10.18;7.50;;;;;;;;;;4968794;28;20052;-62
2022/08/17 15:24:24;;;;;;;9.38;7.32;;;;;;;;;;4968979;28;20396;-63
2022/08/17 15:26:50;;;;;;;9.25;7.15;;;;;;;;;;4969402;28;20440;-63
2022/08/17 15:29:15;;;;;;;13.10;7.90;;;;;;;;;;4968801;28;20464;-63
2022/08/17 15:31:41;;;;;;;13.43;8.40;;;;;;;;;;4968237;28;20499;-62
2022/08/17 15:34:06;;;;;;;10.13;7.80;;;;;;;;;;4968637;28;20444;-63
2022/08/17 15:36:32;;;;;;;8.75;6.90;;;;;;;;;;4968582;28;20428;-62
2022/08/17 15:38:58;;;;;;;10.25;7.25;;;;;;;;;;4968456;28;20470;-63